Time;durP1;ratioP1;P1;durP2;ratioP2;P2;SDS_P1;SDS_P2;PMS_P1;PMS_P2;Temp;Humidity;BMP_temperature;BMP_pressure;BME280_temperature;BME280_humidity;BME280_pressure;Samples;Min_cycle;Max_cycle;Signal;HPM_P1;HPM_P2
2021/08/06 00:00:57;;;;;;;0.53;0.53;;;;;;;18.53;75.72;97965.63;5071299;28;43575;-91
2021/08/06 00:03:25;;;;;;;0.37;0.37;;;;;;;18.56;75.64;97971.47;5052407;28;42689;-88
2021/08/06 00:05:54;;;;;;;0.50;0.50;;;;;;;18.48;75.92;97957.25;5088240;28;41063;-88
2021/08/06 00:08:22;;;;;;;0.50;0.50;;;;;;;18.55;75.87;97971.66;5052245;28;40460;-84
2021/08/06 00:10:50;;;;;;;0.70;0.63;;;;;;;18.48;76.18;97962.63;5087716;28;42697;-83
2021/08/06 00:13:19;;;;;;;0.40;0.40;;;;;;;18.43;76.16;97970.31;5053170;28;42238;-85
2021/08/06 00:15:47;;;;;;;0.40;0.40;;;;;;;18.37;75.94;97965.63;5070829;28;40086;-84
2021/08/06 00:18:14;;;;;;;0.30;0.30;;;;;;;18.29;76.15;97967.31;5069529;28;41991;-88
2021/08/06 00:20:42;;;;;;;0.40;0.40;;;;;;;18.14;76.14;97949.34;5069532;28;43089;-84
2021/08/06 00:23:10;;;;;;;0.43;0.43;;;;;;;18.16;76.18;97958.91;5069321;28;43175;-83
2021/08/06 00:25:38;;;;;;;0.53;0.50;;;;;;;18.13;76.30;97956.56;5053546;28;39332;-85
2021/08/06 00:28:16;;;;;;;0.40;0.40;;;;;;;18.21;76.36;97959.25;5068710;28;42597;-91
2021/08/06 00:30:45;;;;;;;0.30;0.30;;;;;;;18.12;76.25;97941.47;5070997;28;43120;-84
2021/08/06 00:33:14;;;;;;;0.50;0.50;;;;;;;18.26;76.81;97954.22;5071962;28;42266;-82
2021/08/06 00:35:45;;;;;;;0.40;0.40;;;;;;;18.24;76.47;97956.22;5056829;28;40037;-88
2021/08/06 00:38:14;;;;;;;0.30;0.30;;;;;;;18.17;76.57;97943.69;5068489;28;40921;-85
2021/08/06 00:40:44;;;;;;;0.50;0.50;;;;;;;18.15;76.47;97954.56;5052421;28;41836;-83
2021/08/06 00:43:16;;;;;;;0.50;0.40;;;;;;;18.04;76.14;97949.50;5068689;28;42350;-88
2021/08/06 00:45:47;;;;;;;0.50;0.50;;;;;;;18.03;75.91;97942.47;5052035;28;39436;-89
2021/08/06 00:48:22;;;;;;;0.70;0.70;;;;;;;18.11;76.02;97955.88;5052023;28;40654;-86
2021/08/06 00:50:50;;;;;;;0.37;0.37;;;;;;;17.81;75.79;97911.78;5052721;28;42981;-86
2021/08/06 00:53:17;;;;;;;0.40;0.40;;;;;;;18.05;75.38;97951.16;5052672;28;41605;-87
2021/08/06 00:55:49;;;;;;;0.47;0.40;;;;;;;18.07;76.11;97954.53;5069470;28;39851;-87
2021/08/06 00:58:22;;;;;;;0.50;0.50;;;;;;;18.05;76.38;97951.16;5068573;28;40870;-87
2021/08/06 01:00:52;;;;;;;0.27;0.27;;;;;;;17.98;76.53;97944.81;5052685;28;41686;-86
2021/08/06 01:03:39;;;;;;;0.50;0.50;;;;;;;17.78;76.77;97927.34;5053082;28;41464;-88
2021/08/06 01:06:15;;;;;;;0.40;0.40;;;;;;;17.84;76.88;97942.75;5053741;28;40225;-90
2021/08/06 01:08:52;;;;;;;0.43;0.43;;;;;;;17.92;77.09;97957.03;5075216;28;42822;-81
2021/08/06 01:11:23;;;;;;;0.40;0.40;;;;;;;17.95;76.76;97953.16;5053080;28;43089;-87
2021/08/06 01:13:56;;;;;;;0.47;0.47;;;;;;;18.00;76.46;97958.03;5074351;28;45130;-82
2021/08/06 01:16:32;;;;;;;0.47;0.47;;;;;;;18.04;76.75;97960.22;5058307;28;38703;-83
2021/08/06 01:19:17;;;;;;;0.53;0.40;;;;;;;18.09;76.57;97957.03;5073038;28;41882;-86
2021/08/06 01:21:53;;;;;;;0.60;0.60;;;;;;;18.12;76.11;97946.00;5054051;28;43008;-82
2021/08/06 01:24:24;;;;;;;0.40;0.40;;;;;;;18.16;76.17;97948.19;5059381;28;42724;-86
2021/08/06 01:26:56;;;;;;;0.70;0.60;;;;;;;18.21;76.58;97948.50;5074380;28;41004;-81
2021/08/06 01:29:24;;;;;;;0.50;0.50;;;;;;;18.22;76.27;97946.69;5070873;28;42174;-87
2021/08/06 01:31:53;;;;;;;0.40;0.40;;;;;;;18.10;76.25;97923.88;5053150;28;43058;-85
2021/08/06 01:34:23;;;;;;;0.53;0.50;;;;;;;18.12;76.65;97936.13;5069977;28;42321;-84
2021/08/06 01:36:53;;;;;;;0.40;0.40;;;;;;;18.06;76.13;97930.56;5056251;28;39210;-83
2021/08/06 01:39:34;;;;;;;0.63;0.63;;;;;;;18.03;76.05;97947.84;5073277;28;41891;-84
2021/08/06 01:42:08;;;;;;;0.57;0.57;;;;;;;17.98;76.29;97936.75;5057533;28;41865;-83
2021/08/06 01:44:48;;;;;;;0.30;0.30;;;;;;;17.97;76.60;97934.25;5054741;28;42014;-83
2021/08/06 01:47:23;;;;;;;0.30;0.30;;;;;;;17.84;76.72;97921.31;5060147;28;40261;-85
2021/08/06 01:49:59;;;;;;;0.40;0.40;;;;;;;17.95;76.69;97950.47;5069542;28;40852;-81
2021/08/06 01:52:31;;;;;;;0.50;0.50;;;;;;;17.91;76.73;97943.78;5094004;28;43462;-81
2021/08/06 01:55:04;;;;;;;0.20;0.20;;;;;;;17.86;76.55;97943.44;5076279;28;41198;-81
2021/08/06 01:57:45;;;;;;;0.50;0.50;;;;;;;17.80;76.72;97930.72;5077256;28;39086;-81
2021/08/06 02:00:14;;;;;;;0.43;0.43;;;;;;;17.68;77.09;97924.78;5076356;28;41591;-80
2021/08/06 02:02:51;;;;;;;0.50;0.50;;;;;;;17.60;77.31;97920.22;5094040;28;42110;-81
2021/08/06 02:05:27;;;;;;;0.30;0.30;;;;;;;17.59;77.24;97929.25;5076716;28;40986;-82
2021/08/06 02:07:58;;;;;;;0.37;0.37;;;;;;;17.65;77.64;97938.53;5067001;28;40011;-80
2021/08/06 02:10:30;;;;;;;0.57;0.50;;;;;;;17.52;77.51;97917.53;5083048;28;42405;-81
2021/08/06 02:13:03;;;;;;;0.30;0.30;;;;;;;17.49;77.32;97923.22;5083199;28;41965;-80
2021/08/06 02:15:31;;;;;;;0.50;0.50;;;;;;;17.54;77.94;97930.78;5082811;28;42601;-81
2021/08/06 02:18:00;;;;;;;0.40;0.40;;;;;;;17.47;77.52;97924.38;5082690;28;41450;-81
2021/08/06 02:20:48;;;;;;;0.47;0.47;;;;;;;17.59;77.47;97939.97;5081942;28;42789;-82
2021/08/06 02:23:20;;;;;;;0.30;0.30;;;;;;;17.62;77.66;97938.81;5058459;28;41993;-84
2021/08/06 02:25:49;;;;;;;0.33;0.33;;;;;;;17.63;77.57;97947.69;5057218;28;41819;-83
2021/08/06 02:28:20;;;;;;;1.33;1.03;;;;;;;17.52;77.76;97922.91;5055123;28;39889;-89
2021/08/06 02:30:49;;;;;;;0.50;0.50;;;;;;;17.51;77.63;97926.56;5071769;28;41857;-84
2021/08/06 02:33:18;;;;;;;0.40;0.40;;;;;;;17.54;77.88;97941.47;5054238;28;42754;-83
2021/08/06 02:35:45;;;;;;;0.50;0.50;;;;;;;17.44;77.73;97919.34;5054314;28;41055;-90
2021/08/06 02:38:20;;;;;;;0.40;0.40;;;;;;;17.54;77.67;97930.78;5070457;28;39013;-86
2021/08/06 02:40:48;;;;;;;0.30;0.30;;;;;;;17.54;78.09;97936.13;5090371;28;42909;-84
2021/08/06 02:43:18;;;;;;;1.00;0.50;;;;;;;17.50;78.08;97924.91;5055100;28;41943;-86
2021/08/06 02:45:47;;;;;;;0.50;0.50;;;;;;;17.50;77.84;97919.53;5055234;28;41099;-86
2021/08/06 02:48:15;;;;;;;0.60;0.60;;;;;;;17.66;77.90;97934.84;5087533;28;40398;-86
2021/08/06 02:50:43;;;;;;;0.40;0.40;;;;;;;17.72;77.83;97938.72;5054777;28;41603;-83
2021/08/06 02:53:11;;;;;;;0.43;0.43;;;;;;;17.78;77.28;97933.56;5053861;28;41863;-85
2021/08/06 02:55:38;;;;;;;0.50;0.50;;;;;;;17.83;77.32;97938.41;5054393;28;42464;-88
2021/08/06 02:58:06;;;;;;;0.50;0.50;;;;;;;17.79;76.82;97921.00;5052145;28;39215;-85
2021/08/06 03:00:37;;;;;;;0.60;0.60;;;;;;;17.80;77.08;97922.69;5072538;28;40627;-86
2021/08/06 03:03:04;;;;;;;0.67;0.67;;;;;;;17.86;78.04;97935.41;5056475;28;42848;-83
2021/08/06 03:05:34;;;;;;;0.60;0.60;;;;;;;17.73;77.76;97914.44;5070768;28;42343;-85
2021/08/06 03:08:01;;;;;;;0.50;0.50;;;;;;;17.78;78.08;97927.34;5070531;28;41456;-85
2021/08/06 03:10:30;;;;;;;0.40;0.40;;;;;;;17.70;78.60;97924.63;5070165;28;41828;-87
2021/08/06 03:12:58;;;;;;;0.40;0.37;;;;;;;17.69;78.72;97928.31;5052936;28;41921;-83
2021/08/06 03:15:26;;;;;;;0.40;0.40;;;;;;;17.53;78.59;97916.53;5053216;28;41679;-87
2021/08/06 03:17:55;;;;;;;0.80;0.80;;;;;;;17.58;78.59;97932.94;5054045;28;39090;-83
2021/08/06 03:20:25;;;;;;;0.40;0.40;;;;;;;17.38;78.99;97899.44;5070248;28;42588;-86
2021/08/06 03:22:56;;;;;;;0.50;0.50;;;;;;;17.40;79.12;97910.81;5053482;28;41798;-86
2021/08/06 03:25:24;;;;;;;0.50;0.50;;;;;;;17.46;79.36;97928.88;5036504;28;41460;-85
2021/08/06 03:27:55;;;;;;;0.60;0.50;;;;;;;17.36;79.21;97917.47;5086434;28;40485;-83
2021/08/06 03:30:25;;;;;;;0.83;0.83;;;;;;;17.35;79.34;97923.81;5070716;28;40838;-83
2021/08/06 03:32:55;;;;;;;0.50;0.50;;;;;;;17.25;78.97;97901.72;5052837;28;41650;-85
2021/08/06 03:35:22;;;;;;;0.50;0.50;;;;;;;17.28;79.63;97925.47;5087837;28;42379;-84
2021/08/06 03:37:51;;;;;;;0.53;0.50;;;;;;;17.26;79.44;97924.81;5053649;28;39471;-84
2021/08/06 03:40:20;;;;;;;0.40;0.40;;;;;;;17.27;79.68;97929.16;5074831;28;40963;-84
2021/08/06 03:42:48;;;;;;;0.33;0.30;;;;;;;17.13;80.14;97905.66;5057742;28;42645;-85
2021/08/06 03:45:16;;;;;;;0.57;0.50;;;;;;;17.22;80.42;97926.94;5071481;28;42783;-85
2021/08/06 03:47:48;;;;;;;0.40;0.40;;;;;;;17.12;80.69;97909.34;5071716;28;40030;-81
2021/08/06 03:50:17;;;;;;;0.50;0.50;;;;;;;17.15;80.35;97914.38;5054203;28;40764;-90
2021/08/06 03:52:45;;;;;;;0.57;0.57;;;;;;;17.14;81.03;97913.53;5053033;28;43348;-82
2021/08/06 03:55:13;;;;;;;0.40;0.40;;;;;;;17.16;81.07;97910.72;5053265;28;41253;-89
2021/08/06 03:57:49;;;;;;;0.30;0.30;;;;;;;17.17;81.02;97912.38;5052975;28;40913;-85
2021/08/06 04:00:18;;;;;;;0.27;0.27;;;;;;;17.20;80.73;97914.72;5053404;28;40707;-83
2021/08/06 04:02:47;;;;;;;1.63;0.70;;;;;;;17.29;80.51;97924.47;5069345;28;42880;-87
2021/08/06 04:05:17;;;;;;;0.50;0.50;;;;;;;17.32;80.35;97931.31;5052978;28;41466;-86
2021/08/06 04:07:47;;;;;;;0.23;0.23;;;;;;;17.34;80.55;97935.53;5052652;28;39806;-87
2021/08/06 04:10:21;;;;;;;0.30;0.30;;;;;;;17.36;80.31;97916.63;5052565;28;41717;-85
2021/08/06 04:12:51;;;;;;;0.50;0.50;;;;;;;17.30;80.02;97907.44;5052140;28;43045;-85
2021/08/06 04:15:19;;;;;;;0.43;0.43;;;;;;;17.48;79.96;97926.06;5069845;28;43259;-81
2021/08/06 04:17:47;;;;;;;0.40;0.40;;;;;;;17.53;79.82;97924.56;5069384;28;41052;-85
2021/08/06 04:20:15;;;;;;;0.30;0.30;;;;;;;17.53;79.93;97921.06;5069287;28;42126;-87
2021/08/06 04:22:44;;;;;;;0.40;0.40;;;;;;;17.64;80.20;97922.63;5069208;28;43073;-87
2021/08/06 04:25:13;;;;;;;0.50;0.50;;;;;;;17.62;80.65;97908.53;5052982;28;41253;-88
2021/08/06 04:27:42;;;;;;;0.40;0.40;;;;;;;17.74;80.31;97915.28;5068856;28;38794;-86
2021/08/06 04:30:11;;;;;;;0.47;0.47;;;;;;;17.78;79.58;97911.28;5051996;28;41054;-86
2021/08/06 04:32:40;;;;;;;0.40;0.40;;;;;;;17.87;79.21;97910.28;5052867;28;43079;-86
2021/08/06 04:35:09;;;;;;;0.50;0.50;;;;;;;17.94;79.25;97903.25;5052473;28;42101;-88
2021/08/06 04:37:48;;;;;;;0.40;0.30;;;;;;;18.08;78.71;97917.84;5068863;28;40519;-85
2021/08/06 04:40:16;;;;;;;0.33;0.33;;;;;;;18.25;78.23;97925.75;5051358;28;41652;-87
2021/08/06 04:42:45;;;;;;;0.30;0.30;;;;;;;18.29;78.26;97921.75;5085911;28;43220;-82
2021/08/06 04:45:13;;;;;;;0.43;0.43;;;;;;;18.41;78.00;97927.59;5070107;28;43364;-84
2021/08/06 04:47:46;;;;;;;0.30;0.30;;;;;;;18.46;77.62;97925.25;5068792;28;41254;-88
2021/08/06 04:50:18;;;;;;;0.30;0.30;;;;;;;18.46;77.14;97906.47;5051881;28;42170;-84
2021/08/06 04:52:47;;;;;;;0.30;0.30;;;;;;;18.67;77.06;97919.38;5051376;28;41757;-84
2021/08/06 04:55:16;;;;;;;0.40;0.40;;;;;;;18.76;76.96;97907.66;5050812;28;41233;-85
2021/08/06 04:57:47;;;;;;;0.30;0.30;;;;;;;18.83;76.69;97919.38;5035771;28;39272;-88
2021/08/06 05:00:18;;;;;;;0.30;0.30;;;;;;;18.79;76.54;97896.56;5069626;28;41362;-86
2021/08/06 05:02:46;;;;;;;0.80;0.80;;;;;;;18.91;76.23;97903.28;5050998;28;41560;-84
2021/08/06 05:05:14;;;;;;;0.57;0.57;;;;;;;19.04;75.95;97893.84;5068579;28;42208;-86
2021/08/06 05:07:41;;;;;;;0.30;0.30;;;;;;;19.22;75.51;97905.19;5068578;28;39792;-82
2021/08/06 05:10:12;;;;;;;0.40;0.40;;;;;;;19.20;75.30;97891.09;5051017;28;41489;-87
2021/08/06 05:12:40;;;;;;;0.30;0.30;;;;;;;19.33;74.95;97915.53;5051573;28;42896;-86
2021/08/06 05:15:08;;;;;;;0.50;0.50;;;;;;;19.37;74.99;97906.13;5052144;28;41543;-85
2021/08/06 05:17:36;;;;;;;0.27;0.27;;;;;;;19.44;74.89;97896.34;5051251;28;39353;-84
2021/08/06 05:20:06;;;;;;;0.40;0.40;;;;;;;19.31;74.49;97874.59;5067596;28;41466;-86
2021/08/06 05:22:34;;;;;;;0.47;0.40;;;;;;;19.48;74.72;97902.22;5068518;28;42890;-86
2021/08/06 05:25:02;;;;;;;0.40;0.40;;;;;;;19.48;74.28;97903.06;5068843;28;42313;-85
2021/08/06 05:27:31;;;;;;;1.30;0.67;;;;;;;19.41;74.13;97891.31;5084772;28;40156;-82
2021/08/06 05:29:59;;;;;;;0.40;0.40;;;;;;;19.44;74.05;97912.47;5084751;28;41978;-82
2021/08/06 05:32:26;;;;;;;0.23;0.23;;;;;;;19.18;74.07;97868.94;5067442;28;43674;-86
2021/08/06 05:34:54;;;;;;;0.53;0.53;;;;;;;19.38;73.62;97907.81;5068200;28;42387;-86
2021/08/06 05:37:22;;;;;;;0.40;0.40;;;;;;;19.39;73.66;97909.47;5067808;28;41491;-85
2021/08/06 05:39:50;;;;;;;0.50;0.50;;;;;;;19.30;73.48;97883.66;5051244;28;40818;-87
2021/08/06 05:42:19;;;;;;;0.40;0.40;;;;;;;19.44;73.76;97907.09;5051097;28;41677;-85
2021/08/06 05:44:49;;;;;;;0.37;0.37;;;;;;;19.48;73.57;97905.75;5051719;28;41294;-82
2021/08/06 05:47:17;;;;;;;0.67;0.40;;;;;;;19.49;73.40;97903.91;5034157;28;39228;-82
2021/08/06 05:49:45;;;;;;;0.70;0.70;;;;;;;19.44;73.48;97885.59;5067756;28;40912;-84
2021/08/06 05:52:13;;;;;;;0.50;0.50;;;;;;;19.55;73.37;97908.56;5050724;28;41567;-82
2021/08/06 05:54:41;;;;;;;0.33;0.33;;;;;;;19.62;73.03;97905.03;5051087;28;41611;-84
2021/08/06 05:57:08;;;;;;;0.50;0.50;;;;;;;19.76;72.85;97922.25;5067877;28;40932;-86
2021/08/06 05:59:36;;;;;;;0.30;0.30;;;;;;;19.88;72.52;97933.44;5067477;28;41928;-83
2021/08/06 06:02:05;;;;;;;0.33;0.33;;;;;;;20.00;72.55;97929.34;5067215;28;42988;-82
2021/08/06 06:05:00;;;;;;;0.50;0.50;;;;;;;20.05;72.36;97932.31;5049638;28;41598;-86
2021/08/06 06:07:28;;;;;;;0.43;0.43;;;;;;;20.07;72.65;97935.66;5067473;28;39961;-87
2021/08/06 06:09:56;;;;;;;0.30;0.30;;;;;;;20.10;72.32;97943.38;5067949;28;41555;-82
2021/08/06 06:12:23;;;;;;;0.30;0.30;;;;;;;19.95;71.57;97915.56;5067432;28;43066;-85
2021/08/06 06:14:51;;;;;;;0.30;0.30;;;;;;;20.07;71.87;97935.66;5067973;28;43319;-85
2021/08/06 06:17:20;;;;;;;0.30;0.30;;;;;;;20.19;72.45;97950.34;5067672;28;39074;-83
2021/08/06 06:19:51;;;;;;;0.40;0.30;;;;;;;20.16;72.88;97939.13;5067588;28;41892;-82
2021/08/06 06:22:18;;;;;;;0.40;0.40;;;;;;;20.11;72.22;97942.34;5067495;28;41560;-84
2021/08/06 06:24:47;;;;;;;0.40;0.40;;;;;;;20.08;72.63;97958.84;5067442;28;42542;-86
2021/08/06 06:27:15;;;;;;;1.07;0.40;;;;;;;19.86;73.68;97971.22;5050499;28;39935;-88
2021/08/06 06:29:42;;;;;;;0.30;0.30;;;;;;;19.52;74.62;97963.50;5051321;28;41006;-83
2021/08/06 06:32:10;;;;;;;0.30;0.30;;;;;;;19.26;75.34;97946.78;5069730;28;42929;-87
2021/08/06 06:34:40;;;;;;;0.33;0.33;;;;;;;19.19;75.71;97975.28;5054345;28;41348;-87
2021/08/06 06:37:08;;;;;;;0.63;0.37;;;;;;;18.93;75.82;97957.56;5056135;28;38972;-82
2021/08/06 06:39:37;;;;;;;0.30;0.30;;;;;;;18.90;76.35;97973.19;5057977;28;41073;-84
2021/08/06 06:42:06;;;;;;;0.40;0.40;;;;;;;18.82;76.92;97976.69;5054059;28;41907;-83
2021/08/06 06:44:37;;;;;;;0.20;0.20;;;;;;;18.75;76.90;97975.72;5071219;28;42854;-90
2021/08/06 06:47:05;;;;;;;0.30;0.30;;;;;;;18.70;76.86;97961.13;5087086;28;40158;-89
2021/08/06 06:49:33;;;;;;;0.30;0.30;;;;;;;18.65;77.19;97969.69;5053358;28;41002;-88
2021/08/06 06:52:03;;;;;;;0.30;0.30;;;;;;;18.53;77.22;97952.22;5052772;28;41727;-85
2021/08/06 06:54:32;;;;;;;0.40;0.40;;;;;;;18.65;77.23;97975.06;5070833;28;41506;-90
2021/08/06 06:56:59;;;;;;;0.30;0.30;;;;;;;18.67;77.48;97978.38;5053157;28;40223;-86
2021/08/06 06:59:27;;;;;;;0.30;0.30;;;;;;;18.67;77.23;97973.00;5053517;28;41280;-87
2021/08/06 07:01:55;;;;;;;0.40;0.40;;;;;;;18.67;77.42;97973.00;5052809;28;43223;-86
2021/08/06 07:04:23;;;;;;;0.70;0.70;;;;;;;18.56;77.77;97970.63;5070513;28;43331;-84
2021/08/06 07:06:50;;;;;;;0.30;0.30;;;;;;;18.49;78.00;97967.81;5054109;28;39222;-83
2021/08/06 07:09:20;;;;;;;0.50;0.50;;;;;;;18.46;77.92;97969.97;5070784;28;41701;-91
2021/08/06 07:11:47;;;;;;;0.47;0.47;;;;;;;18.47;78.09;97971.66;5053948;28;42426;-89
2021/08/06 07:14:15;;;;;;;0.50;0.40;;;;;;;18.56;78.14;97971.47;5070354;28;41311;-84
2021/08/06 07:16:43;;;;;;;0.67;0.67;;;;;;;18.52;78.46;97959.44;5053529;28;39949;-83
2021/08/06 07:19:11;;;;;;;0.90;0.90;;;;;;;18.52;78.32;97955.91;5053447;28;40619;-89
2021/08/06 07:21:43;;;;;;;0.87;0.67;;;;;;;18.46;78.60;97960.09;5052838;28;42114;-89
2021/08/06 07:24:11;;;;;;;0.27;0.27;;;;;;;18.52;78.99;97972.00;5069744;28;41262;-85
2021/08/06 07:26:40;;;;;;;0.40;0.40;;;;;;;18.46;78.83;97972.66;5070307;28;39906;-86
2021/08/06 07:29:07;;;;;;;0.40;0.40;;;;;;;18.44;79.05;97980.03;5070745;28;42492;-83
2021/08/06 07:31:35;;;;;;;0.40;0.40;;;;;;;18.38;79.28;97980.72;5053146;28;43183;-83
2021/08/06 07:34:03;;;;;;;0.43;0.40;;;;;;;18.42;79.50;97987.41;5070211;28;42478;-84
2021/08/06 07:36:31;;;;;;;0.40;0.40;;;;;;;18.39;79.67;97974.34;5037075;28;39977;-85
2021/08/06 07:38:59;;;;;;;0.47;0.40;;;;;;;18.55;79.45;97987.72;5070106;28;41560;-87
2021/08/06 07:41:26;;;;;;;0.73;0.60;;;;;;;18.55;79.63;97985.06;5086190;28;42719;-84
2021/08/06 07:43:56;;;;;;;0.30;0.30;;;;;;;18.58;79.79;97990.13;5069465;28;42638;-87
2021/08/06 07:46:24;;;;;;;0.30;0.30;;;;;;;18.55;79.67;97980.53;5053219;28;40218;-87
2021/08/06 07:48:53;;;;;;;0.40;0.40;;;;;;;18.59;79.75;97987.28;5053422;28;40684;-84
2021/08/06 07:51:20;;;;;;;0.40;0.40;;;;;;;18.57;79.85;97988.41;5069525;28;43819;-86
2021/08/06 07:53:49;;;;;;;0.40;0.40;;;;;;;18.48;80.06;97989.41;5069976;28;41378;-85
2021/08/06 07:56:16;;;;;;;0.37;0.37;;;;;;;18.56;79.80;97989.41;5070077;28;41113;-86
2021/08/06 07:58:44;;;;;;;0.43;0.43;;;;;;;18.68;79.76;98004.19;5052672;28;41812;-87
2021/08/06 08:01:13;;;;;;;0.40;0.40;;;;;;;18.72;79.66;97997.50;5070109;28;42730;-88
2021/08/06 08:03:41;;;;;;;0.40;0.40;;;;;;;18.72;79.89;97992.13;5085834;28;42393;-87
2021/08/06 08:06:09;;;;;;;0.30;0.30;;;;;;;18.64;79.70;97984.94;5068779;28;40038;-86
2021/08/06 08:08:42;;;;;;;0.53;0.53;;;;;;;18.52;79.88;97974.69;5052622;28;42360;-84
2021/08/06 08:11:11;;;;;;;0.40;0.40;;;;;;;18.68;79.67;97998.84;5069339;28;42850;-84
2021/08/06 08:13:39;;;;;;;0.43;0.40;;;;;;;18.47;79.95;97955.56;5052650;28;41145;-84
2021/08/06 08:16:06;;;;;;;0.40;0.40;;;;;;;18.70;79.74;97994.16;5069130;28;40642;-82
2021/08/06 08:18:36;;;;;;;0.43;0.43;;;;;;;18.60;79.77;97980.06;5052017;28;41818;-86
2021/08/06 08:21:04;;;;;;;0.23;0.23;;;;;;;18.70;79.85;97996.00;5051957;28;41681;-85
2021/08/06 08:23:32;;;;;;;0.50;0.50;;;;;;;18.63;80.47;98002.03;5069647;28;43201;-84
2021/08/06 08:25:59;;;;;;;0.40;0.40;;;;;;;18.61;79.90;97992.47;5051492;28;40466;-81
2021/08/06 08:28:31;;;;;;;0.60;0.60;;;;;;;18.70;79.42;97983.41;5068908;28;41924;-84
2021/08/06 08:31:03;;;;;;;0.40;0.40;;;;;;;18.91;79.76;98002.53;5052200;28;42080;-82
2021/08/06 08:33:32;;;;;;;0.87;0.87;;;;;;;19.21;79.30;98010.88;5069054;28;41271;-85
2021/08/06 08:36:04;;;;;;;0.23;0.23;;;;;;;19.60;78.20;98003.75;5052589;28;39373;-85
2021/08/06 08:38:33;;;;;;;0.57;0.57;;;;;;;19.93;77.65;97979.41;5053576;28;41242;-81
2021/08/06 08:41:01;;;;;;;0.40;0.40;;;;;;;20.47;76.61;98000.97;5051905;28;42021;-83
2021/08/06 08:43:29;;;;;;;0.60;0.60;;;;;;;20.80;75.39;97992.44;5035732;28;41143;-84
2021/08/06 08:45:58;;;;;;;0.40;0.40;;;;;;;21.56;74.58;97987.84;5052291;28;40150;-87
2021/08/06 08:48:26;;;;;;;0.43;0.40;;;;;;;23.26;70.50;97996.09;5052134;28;40771;-87
2021/08/06 08:50:55;;;;;;;0.60;0.47;;;;;;;23.76;68.82;97994.13;5035006;28;43124;-84
2021/08/06 08:53:26;;;;;;;0.40;0.40;;;;;;;23.88;68.24;97997.94;5067317;28;41299;-86
2021/08/06 08:55:54;;;;;;;0.53;0.53;;;;;;;23.94;67.75;97991.75;5050573;28;40150;-87
2021/08/06 08:58:22;;;;;;;0.37;0.37;;;;;;;24.18;66.96;97981.41;5069801;28;41390;-82
2021/08/06 09:00:50;;;;;;;0.63;0.60;;;;;;;24.72;65.13;97983.25;5051119;28;42014;-83
2021/08/06 09:03:37;;;;;;;0.53;0.53;;;;;;;25.04;63.90;97993.28;5052103;28;41243;-82
2021/08/06 09:06:08;;;;;;;0.30;0.30;;;;;;;25.59;62.05;98002.78;5069387;28;40258;-90
2021/08/06 09:08:38;;;;;;;0.40;0.40;;;;;;;26.20;60.35;98013.28;5051753;28;41923;-87
2021/08/06 09:11:29;;;;;;;0.40;0.40;;;;;;;26.42;59.90;98005.69;5068380;28;42215;-87
2021/08/06 09:14:18;;;;;;;0.37;0.37;;;;;;;25.77;59.00;97994.00;5069807;28;41572;-86
2021/08/06 09:17:00;;;;;;;0.60;0.60;;;;;;;25.51;59.23;98010.31;5051516;28;40151;-85
2021/08/06 09:19:29;;;;;;;0.63;0.30;;;;;;;25.38;58.64;97990.31;5069218;28;42085;-89
2021/08/06 09:22:12;;;;;;;0.50;0.50;;;;;;;25.34;59.51;98005.34;5052541;28;42807;-90
2021/08/06 09:25:10;;;;;;;0.57;0.53;;;;;;;25.42;59.97;98002.41;5052487;28;41340;-86
2021/08/06 09:27:41;;;;;;;0.33;0.30;;;;;;;25.08;59.48;97983.69;5053617;28;39879;-86
2021/08/06 09:30:15;;;;;;;0.57;0.50;;;;;;;24.92;60.04;98005.75;5052285;28;41684;-87
2021/08/06 09:32:48;;;;;;;0.43;0.43;;;;;;;24.68;61.38;97999.91;5054042;28;42976;-89
2021/08/06 09:35:16;;;;;;;0.50;0.50;;;;;;;24.52;60.92;98002.97;5053929;28;41238;-86
2021/08/06 09:37:45;;;;;;;0.30;0.30;;;;;;;24.45;61.01;98006.72;5052432;28;40047;-86
2021/08/06 09:40:17;;;;;;;0.57;0.57;;;;;;;24.27;61.56;97993.75;5053533;28;41065;-87
2021/08/06 09:42:51;;;;;;;0.30;0.30;;;;;;;24.28;61.62;98003.53;5069569;28;42293;-84
2021/08/06 09:45:21;;;;;;;0.50;0.50;;;;;;;24.28;61.79;98009.78;5052764;28;41341;-86
2021/08/06 09:47:55;;;;;;;0.30;0.30;;;;;;;24.25;62.30;98003.94;5051949;28;39997;-83
2021/08/06 09:50:27;;;;;;;0.30;0.30;;;;;;;24.28;61.68;97995.44;5070264;28;41853;-86
2021/08/06 09:52:55;;;;;;;0.30;0.30;;;;;;;24.36;61.81;98000.63;5068610;28;42919;-85
2021/08/06 09:55:27;;;;;;;0.30;0.30;;;;;;;24.60;61.17;97991.94;5052560;28;41174;-85
2021/08/06 09:57:56;;;;;;;0.30;0.30;;;;;;;24.92;61.22;98000.31;5052173;28;39657;-85
2021/08/06 10:00:25;;;;;;;0.30;0.30;;;;;;;25.07;58.92;98017.25;5069280;28;41830;-83
2021/08/06 10:02:59;;;;;;;0.40;0.40;;;;;;;25.22;59.23;98017.84;5085370;28;44166;-86
2021/08/06 10:05:28;;;;;;;0.37;0.37;;;;;;;25.23;58.44;98022.22;5069892;28;42948;-84
2021/08/06 10:07:58;;;;;;;0.30;0.30;;;;;;;25.15;58.32;98022.44;5072525;28;39206;-86
2021/08/06 10:10:30;;;;;;;0.40;0.33;;;;;;;24.88;58.42;98009.91;5055181;28;41814;-85
2021/08/06 10:13:00;;;;;;;0.40;0.40;;;;;;;24.69;58.82;98012.41;5071825;28;43135;-85
2021/08/06 10:15:28;;;;;;;0.40;0.40;;;;;;;24.90;58.82;98014.06;5072491;28;41279;-86
2021/08/06 10:17:57;;;;;;;0.30;0.30;;;;;;;25.53;57.89;98014.50;5054351;28;39293;-82
2021/08/06 10:20:27;;;;;;;0.30;0.30;;;;;;;26.50;56.17;97999.16;5054329;28;41165;-85
2021/08/06 10:22:55;;;;;;;0.30;0.30;;;;;;;27.36;54.70;98019.22;5070676;28;42776;-84
2021/08/06 10:25:25;;;;;;;0.20;0.20;;;;;;;27.40;53.71;98033.19;5054150;28;42623;-86
2021/08/06 10:27:56;;;;;;;0.43;0.43;;;;;;;27.85;52.53;98031.09;5053981;28;39116;-84
2021/08/06 10:30:25;;;;;;;0.20;0.20;;;;;;;28.03;50.87;98036.56;5071301;28;40788;-84
2021/08/06 10:33:12;;;;;;;0.30;0.30;;;;;;;28.18;51.42;98020.69;5053853;28;41918;-84
2021/08/06 10:35:45;;;;;;;0.23;0.23;;;;;;;28.33;49.79;98020.28;5054126;28;41544;-87
2021/08/06 10:38:14;;;;;;;2.17;0.40;;;;;;;28.34;50.82;98015.66;5054169;28;39976;-88
2021/08/06 10:43:57;;;;;;;0.70;0.30;;;;;;;29.14;48.35;98035.28;5049382;28;41672;-88
2021/08/06 10:46:25;;;;;;;0.40;0.40;;;;;;;28.97;47.72;98026.09;5053642;28;41281;-86
2021/08/06 10:48:55;;;;;;;0.30;0.30;;;;;;;28.97;48.67;98023.38;5054151;28;39073;-87
2021/08/06 10:51:29;;;;;;;0.30;0.30;;;;;;;29.34;46.67;98013.94;5070987;28;40855;-91
2021/08/06 10:54:26;;;;;;;0.40;0.40;;;;;;;29.85;47.33;98018.72;5053068;28;41770;-89
2021/08/06 10:57:15;;;;;;;0.30;0.30;;;;;;;29.60;46.47;98027.16;5054075;28;41318;-86
2021/08/06 10:59:46;;;;;;;0.83;0.30;;;;;;;30.00;45.94;98023.72;5055009;28;39145;-88
2021/08/06 11:02:36;;;;;;;0.40;0.40;;;;;;;30.16;45.11;98022.97;5053173;28;42160;-86
2021/08/06 11:05:41;;;;;;;0.40;0.40;;;;;;;30.13;45.62;98017.16;5053544;28;42846;-89
2021/08/06 11:08:55;;;;;;;0.40;0.40;;;;;;;30.13;44.55;98022.63;5072144;28;42713;-90
2021/08/06 11:11:46;;;;;;;0.30;0.30;;;;;;;30.56;43.22;98033.91;5054349;28;40229;-91
2021/08/06 11:14:16;;;;;;;0.40;0.40;;;;;;;31.17;44.85;98017.78;5053233;28;41818;-90
2021/08/06 11:17:16;;;;;;;0.40;0.40;;;;;;;31.29;41.67;98029.47;5053704;28;42637;-84
2021/08/06 11:19:46;;;;;;;0.40;0.40;;;;;;;30.40;41.47;98039.28;5052343;28;41221;-88
2021/08/06 11:22:24;;;;;;;0.50;0.50;;;;;;;29.77;43.16;98029.19;5071710;28;39302;-85
2021/08/06 11:24:54;;;;;;;0.53;0.53;;;;;;;29.50;43.53;98035.13;5053931;28;41106;-85
2021/08/06 11:27:31;;;;;;;0.30;0.30;;;;;;;29.17;42.31;98041.09;5053177;28;41892;-86
2021/08/06 11:30:00;;;;;;;0.60;0.60;;;;;;;28.82;44.04;98021.91;5052674;28;41140;-85
2021/08/06 11:32:31;;;;;;;0.40;0.40;;;;;;;28.74;44.87;98019.50;5053808;28;41044;-86
2021/08/06 11:35:00;;;;;;;0.57;0.50;;;;;;;28.67;45.54;98012.50;5053166;28;41133;-86
2021/08/06 11:37:45;;;;;;;0.90;0.50;;;;;;;28.43;45.03;98027.94;5054137;28;43120;-86
2021/08/06 11:40:15;;;;;;;1.67;0.30;;;;;;;28.05;46.15;98004.50;5053359;28;41462;-87
2021/08/06 11:42:43;;;;;;;0.40;0.40;;;;;;;27.94;46.87;97999.81;5053896;28;39165;-86
2021/08/06 11:45:13;;;;;;;0.67;0.40;;;;;;;28.39;46.90;97972.25;5052448;28;40904;-87
2021/08/06 11:47:45;;;;;;;0.40;0.40;;;;;;;29.40;46.13;98007.59;5053301;28;41652;-86
2021/08/06 11:50:15;;;;;;;0.60;0.40;;;;;;;30.34;43.09;98009.13;5070202;28;41463;-88
2021/08/06 11:52:45;;;;;;;0.80;0.40;;;;;;;30.16;42.11;98030.34;5053796;28;39103;-89
2021/08/06 11:55:16;;;;;;;0.30;0.30;;;;;;;29.53;43.68;98003.81;5053276;28;41240;-85